sensor_id;sensor_type;location;lat;lon;timestamp;pressure;altitude;pressure_sealevel;temperature;humidity
81999;BME280;71598;46.516;-122.928;2024-02-21T00:01:53;99624.66;;;18.98;19.32
81999;BME280;71598;46.516;-122.928;2024-02-21T00:04:18;99624.78;;;19.12;19.22
81999;BME280;71598;46.516;-122.928;2024-02-21T00:06:44;99622.39;;;18.73;19.32
81999;BME280;71598;46.516;-122.928;2024-02-21T00:09:10;99615.27;;;18.99;19.29
81999;BME280;71598;46.516;-122.928;2024-02-21T00:11:36;99620.81;;;18.73;19.39
81999;BME280;71598;46.516;-122.928;2024-02-21T00:14:01;99626.37;;;19.06;19.32
81999;BME280;71598;46.516;-122.928;2024-02-21T00:16:26;99626.08;;;18.70;19.40
81999;BME280;71598;46.516;-122.928;2024-02-21T00:18:54;99620.78;;;18.69;19.38
81999;BME280;71598;46.516;-122.928;2024-02-21T00:21:17;99616.93;;;18.94;19.38
81999;BME280;71598;46.516;-122.928;2024-02-21T00:23:45;99626.66;;;18.75;19.38
81999;BME280;71598;46.516;-122.928;2024-02-21T00:26:09;99620.73;;;18.87;19.39
81999;BME280;71598;46.516;-122.928;2024-02-21T00:28:35;99629.00;;;19.00;19.31
81999;BME280;71598;46.516;-122.928;2024-02-21T00:30:59;99629.42;;;19.03;19.48
81999;BME280;71598;46.516;-122.928;2024-02-21T00:33:26;99629.01;;;19.11;19.47
81999;BME280;71598;46.516;-122.928;2024-02-21T00:35:50;99624.73;;;19.00;19.49
81999;BME280;71598;46.516;-122.928;2024-02-21T00:38:15;99628.43;;;18.96;19.40
81999;BME280;71598;46.516;-122.928;2024-02-21T00:40:47;99627.49;;;18.89;19.48
81999;BME280;71598;46.516;-122.928;2024-02-21T00:43:06;99639.79;;;18.98;19.43
81999;BME280;71598;46.516;-122.928;2024-02-21T00:45:32;99643.34;;;19.05;19.42
81999;BME280;71598;46.516;-122.928;2024-02-21T00:47:57;99639.55;;;18.87;19.40
81999;BME280;71598;46.516;-122.928;2024-02-21T00:50:22;99636.16;;;18.72;19.46
81999;BME280;71598;46.516;-122.928;2024-02-21T00:52:47;99638.62;;;18.71;19.44
81999;BME280;71598;46.516;-122.928;2024-02-21T00:55:13;99640.86;;;19.07;19.36
81999;BME280;71598;46.516;-122.928;2024-02-21T00:57:39;99643.73;;;18.98;19.47
81999;BME280;71598;46.516;-122.928;2024-02-21T01:00:05;99638.54;;;18.90;19.48
81999;BME280;71598;46.516;-122.928;2024-02-21T01:02:30;99637.87;;;19.14;19.44
81999;BME280;71598;46.516;-122.928;2024-02-21T01:04:55;99636.26;;;19.03;19.45
81999;BME280;71598;46.516;-122.928;2024-02-21T01:07:21;99630.35;;;18.93;19.46
81999;BME280;71598;46.516;-122.928;2024-02-21T01:09:45;99627.38;;;18.90;19.53
81999;BME280;71598;46.516;-122.928;2024-02-21T01:12:11;99627.53;;;18.96;19.44
81999;BME280;71598;46.516;-122.928;2024-02-21T01:14:36;99629.30;;;19.07;19.41
81999;BME280;71598;46.516;-122.928;2024-02-21T01:17:02;99627.01;;;18.94;19.52
81999;BME280;71598;46.516;-122.928;2024-02-21T01:19:29;99630.21;;;19.06;19.46
81999;BME280;71598;46.516;-122.928;2024-02-21T01:21:53;99634.03;;;19.22;19.47
81999;BME280;71598;46.516;-122.928;2024-02-21T01:24:19;99629.30;;;18.79;19.53
81999;BME280;71598;46.516;-122.928;2024-02-21T01:26:44;99631.48;;;19.05;19.52
81999;BME280;71598;46.516;-122.928;2024-02-21T01:29:10;99625.04;;;18.88;19.52
81999;BME280;71598;46.516;-122.928;2024-02-21T01:31:34;99619.90;;;18.85;19.52
81999;BME280;71598;46.516;-122.928;2024-02-21T01:34:00;99619.93;;;18.95;19.55
81999;BME280;71598;46.516;-122.928;2024-02-21T01:36:26;99618.31;;;19.16;19.50
81999;BME280;71598;46.516;-122.928;2024-02-21T01:38:51;99612.41;;;19.03;19.55
81999;BME280;71598;46.516;-122.928;2024-02-21T01:41:17;99602.67;;;19.05;19.54
81999;BME280;71598;46.516;-122.928;2024-02-21T01:43:42;99596.80;;;18.99;19.59
81999;BME280;71598;46.516;-122.928;2024-02-21T01:46:07;99598.95;;;18.96;19.57
81999;BME280;71598;46.516;-122.928;2024-02-21T01:48:34;99603.65;;;19.03;19.51
81999;BME280;71598;46.516;-122.928;2024-02-21T01:50:58;99599.27;;;19.22;19.53
81999;BME280;71598;46.516;-122.928;2024-02-21T01:53:29;99592.00;;;19.11;19.55
81999;BME280;71598;46.516;-122.928;2024-02-21T01:55:56;99580.41;;;18.67;19.57
81999;BME280;71598;46.516;-122.928;2024-02-21T01:58:16;99570.03;;;18.96;19.57
81999;BME280;71598;46.516;-122.928;2024-02-21T02:00:44;99567.60;;;19.16;19.53
81999;BME280;71598;46.516;-122.928;2024-02-21T02:03:11;99555.52;;;19.17;19.52
81999;BME280;71598;46.516;-122.928;2024-02-21T02:05:45;99545.98;;;19.18;19.54
81999;BME280;71598;46.516;-122.928;2024-02-21T02:08:07;99547.23;;;19.03;19.58
81999;BME280;71598;46.516;-122.928;2024-02-21T02:10:27;99557.95;;;19.29;19.60
81999;BME280;71598;46.516;-122.928;2024-02-21T02:12:51;99563.04;;;18.96;19.55
81999;BME280;71598;46.516;-122.928;2024-02-21T02:15:17;99566.89;;;19.21;19.54
81999;BME280;71598;46.516;-122.928;2024-02-21T02:17:42;99569.19;;;19.13;19.51
81999;BME280;71598;46.516;-122.928;2024-02-21T02:20:08;99570.52;;;18.91;19.55
81999;BME280;71598;46.516;-122.928;2024-02-21T02:22:35;99573.54;;;19.07;19.52
81999;BME280;71598;46.516;-122.928;2024-02-21T02:24:58;99575.36;;;19.05;19.54
81999;BME280;71598;46.516;-122.928;2024-02-21T02:27:23;99575.51;;;19.03;19.49
81999;BME280;71598;46.516;-122.928;2024-02-21T02:29:51;99581.43;;;19.33;19.58
81999;BME280;71598;46.516;-122.928;2024-02-21T02:32:14;99586.00;;;19.37;19.53
81999;BME280;71598;46.516;-122.928;2024-02-21T02:34:40;99592.20;;;19.15;19.50
81999;BME280;71598;46.516;-122.928;2024-02-21T02:37:07;99597.17;;;19.14;19.54
81999;BME280;71598;46.516;-122.928;2024-02-21T02:39:34;99595.78;;;18.79;19.69
81999;BME280;71598;46.516;-122.928;2024-02-21T02:41:57;99593.71;;;19.23;19.66
81999;BME280;71598;46.516;-122.928;2024-02-21T02:44:21;99575.01;;;19.00;19.58
81999;BME280;71598;46.516;-122.928;2024-02-21T02:46:47;99573.92;;;18.98;19.53
81999;BME280;71598;46.516;-122.928;2024-02-21T02:49:12;99558.51;;;19.06;19.61
81999;BME280;71598;46.516;-122.928;2024-02-21T02:51:41;99551.14;;;19.04;19.42
81999;BME280;71598;46.516;-122.928;2024-02-21T02:54:04;99542.94;;;19.06;19.43
81999;BME280;71598;46.516;-122.928;2024-02-21T02:56:29;99549.50;;;19.10;19.41
81999;BME280;71598;46.516;-122.928;2024-02-21T02:58:54;99545.12;;;19.10;19.41
81999;BME280;71598;46.516;-122.928;2024-02-21T03:01:19;99543.95;;;19.29;19.45
81999;BME280;71598;46.516;-122.928;2024-02-21T03:03:45;99550.81;;;19.03;19.53
81999;BME280;71598;46.516;-122.928;2024-02-21T03:06:10;99548.89;;;19.31;19.41
81999;BME280;71598;46.516;-122.928;2024-02-21T03:08:36;99551.37;;;19.48;19.48
81999;BME280;71598;46.516;-122.928;2024-02-21T03:11:02;99550.83;;;19.25;19.57
81999;BME280;71598;46.516;-122.928;2024-02-21T03:13:27;99546.39;;;18.88;19.71
81999;BME280;71598;46.516;-122.928;2024-02-21T03:15:52;99547.44;;;19.03;19.67
81999;BME280;71598;46.516;-122.928;2024-02-21T03:18:18;99556.36;;;19.05;19.53
81999;BME280;71598;46.516;-122.928;2024-02-21T03:20:44;99560.91;;;19.21;19.57
81999;BME280;71598;46.516;-122.928;2024-02-21T03:23:09;99565.94;;;19.19;19.54
81999;BME280;71598;46.516;-122.928;2024-02-21T03:25:35;99566.01;;;19.38;19.56
81999;BME280;71598;46.516;-122.928;2024-02-21T03:28:00;99567.49;;;19.12;19.59
81999;BME280;71598;46.516;-122.928;2024-02-21T03:30:27;99571.72;;;19.16;19.55
81999;BME280;71598;46.516;-122.928;2024-02-21T03:32:51;99570.00;;;19.23;19.56
81999;BME280;71598;46.516;-122.928;2024-02-21T03:35:16;99570.41;;;19.11;19.54
81999;BME280;71598;46.516;-122.928;2024-02-21T03:37:44;99571.13;;;19.07;19.57
81999;BME280;71598;46.516;-122.928;2024-02-21T03:40:09;99568.64;;;18.94;19.51
81999;BME280;71598;46.516;-122.928;2024-02-21T03:42:33;99573.45;;;19.29;19.53
81999;BME280;71598;46.516;-122.928;2024-02-21T03:44:59;99577.71;;;19.18;19.71
81999;BME280;71598;46.516;-122.928;2024-02-21T03:47:27;99576.99;;;18.93;19.71
81999;BME280;71598;46.516;-122.928;2024-02-21T03:49:55;99578.28;;;18.68;19.78
81999;BME280;71598;46.516;-122.928;2024-02-21T03:52:15;99580.40;;;18.99;19.71
81999;BME280;71598;46.516;-122.928;2024-02-21T03:54:40;99580.38;;;18.93;19.68
81999;BME280;71598;46.516;-122.928;2024-02-21T03:57:07;99579.59;;;18.99;19.66
81999;BME280;71598;46.516;-122.928;2024-02-21T03:59:30;99582.06;;;19.17;19.62
81999;BME280;71598;46.516;-122.928;2024-02-21T04:01:57;99583.02;;;19.02;19.60
81999;BME280;71598;46.516;-122.928;2024-02-21T04:04:22;99600.23;;;19.22;19.60
81999;BME280;71598;46.516;-122.928;2024-02-21T04:06:48;99609.57;;;19.08;19.59
81999;BME280;71598;46.516;-122.928;2024-02-21T04:09:13;99588.54;;;19.06;19.57
81999;BME280;71598;46.516;-122.928;2024-02-21T04:11:38;99591.35;;;19.19;19.61
81999;BME280;71598;46.516;-122.928;2024-02-21T04:14:04;99603.27;;;19.17;19.57
81999;BME280;71598;46.516;-122.928;2024-02-21T04:16:29;99600.30;;;19.03;19.66
81999;BME280;71598;46.516;-122.928;2024-02-21T04:18:54;99594.83;;;18.83;19.66
81999;BME280;71598;46.516;-122.928;2024-02-21T04:21:20;99593.49;;;18.97;19.63
81999;BME280;71598;46.516;-122.928;2024-02-21T04:23:45;99605.37;;;19.09;19.55
81999;BME280;71598;46.516;-122.928;2024-02-21T04:26:11;99601.76;;;19.24;19.59
81999;BME280;71598;46.516;-122.928;2024-02-21T04:28:37;99603.36;;;19.31;19.58
81999;BME280;71598;46.516;-122.928;2024-02-21T04:31:03;99608.71;;;19.09;19.55
81999;BME280;71598;46.516;-122.928;2024-02-21T04:33:31;99619.81;;;19.19;19.57
81999;BME280;71598;46.516;-122.928;2024-02-21T04:35:53;99624.39;;;19.25;19.56
81999;BME280;71598;46.516;-122.928;2024-02-21T04:38:18;99630.29;;;18.98;19.61
81999;BME280;71598;46.516;-122.928;2024-02-21T04:40:44;99628.80;;;19.22;19.59
81999;BME280;71598;46.516;-122.928;2024-02-21T04:43:09;99626.92;;;19.25;19.57
81999;BME280;71598;46.516;-122.928;2024-02-21T04:45:34;99632.23;;;19.12;19.59
81999;BME280;71598;46.516;-122.928;2024-02-21T04:48:00;99629.21;;;18.93;19.72
81999;BME280;71598;46.516;-122.928;2024-02-21T04:50:25;99630.05;;;19.15;19.59
81999;BME280;71598;46.516;-122.928;2024-02-21T04:52:50;99628.46;;;19.29;19.51
81999;BME280;71598;46.516;-122.928;2024-02-21T04:55:16;99627.63;;;19.18;19.52
81999;BME280;71598;46.516;-122.928;2024-02-21T04:57:41;99625.62;;;19.15;19.53
81999;BME280;71598;46.516;-122.928;2024-02-21T05:00:08;99612.97;;;19.21;19.52
81999;BME280;71598;46.516;-122.928;2024-02-21T05:02:32;99603.00;;;19.28;19.52
81999;BME280;71598;46.516;-122.928;2024-02-21T05:04:57;99592.09;;;19.38;19.35
81999;BME280;71598;46.516;-122.928;2024-02-21T05:07:23;99582.76;;;19.34;19.50
81999;BME280;71598;46.516;-122.928;2024-02-21T05:09:48;99575.83;;;19.09;19.53
81999;BME280;71598;46.516;-122.928;2024-02-21T05:12:14;99572.59;;;19.28;19.54
81999;BME280;71598;46.516;-122.928;2024-02-21T05:14:39;99571.88;;;19.03;19.64
81999;BME280;71598;46.516;-122.928;2024-02-21T05:17:05;99569.57;;;18.93;19.67
81999;BME280;71598;46.516;-122.928;2024-02-21T05:19:31;99574.25;;;19.18;19.60
81999;BME280;71598;46.516;-122.928;2024-02-21T05:21:58;99573.51;;;19.34;19.57
81999;BME280;71598;46.516;-122.928;2024-02-21T05:24:22;99576.37;;;19.21;19.48
81999;BME280;71598;46.516;-122.928;2024-02-21T05:26:48;99579.72;;;18.92;19.51
81999;BME280;71598;46.516;-122.928;2024-02-21T05:29:13;99583.58;;;19.28;19.51
81999;BME280;71598;46.516;-122.928;2024-02-21T05:31:57;99582.99;;;19.12;19.49
81999;BME280;71598;46.516;-122.928;2024-02-21T05:34:04;99585.31;;;19.29;19.40
81999;BME280;71598;46.516;-122.928;2024-02-21T05:36:29;99586.40;;;19.20;19.45
81999;BME280;71598;46.516;-122.928;2024-02-21T05:38:55;99588.53;;;19.36;19.49
81999;BME280;71598;46.516;-122.928;2024-02-21T05:41:20;99586.14;;;19.07;19.47
81999;BME280;71598;46.516;-122.928;2024-02-21T05:43:45;99586.48;;;19.15;19.57
81999;BME280;71598;46.516;-122.928;2024-02-21T05:46:10;99584.56;;;18.60;19.74
81999;BME280;71598;46.516;-122.928;2024-02-21T05:48:36;99590.11;;;19.01;19.74
81999;BME280;71598;46.516;-122.928;2024-02-21T05:51:03;99591.56;;;19.08;19.69
81999;BME280;71598;46.516;-122.928;2024-02-21T05:53:27;99602.24;;;19.06;19.60
81999;BME280;71598;46.516;-122.928;2024-02-21T05:55:53;99608.94;;;19.03;19.51
81999;BME280;71598;46.516;-122.928;2024-02-21T05:58:18;99616.54;;;19.25;19.51
81999;BME280;71598;46.516;-122.928;2024-02-21T06:00:44;99613.99;;;19.23;19.53
81999;BME280;71598;46.516;-122.928;2024-02-21T06:03:09;99610.75;;;19.00;19.54
81999;BME280;71598;46.516;-122.928;2024-02-21T06:05:38;99615.76;;;19.16;19.49
81999;BME280;71598;46.516;-122.928;2024-02-21T06:08:00;99625.73;;;19.09;19.53
81999;BME280;71598;46.516;-122.928;2024-02-21T06:10:26;99626.41;;;19.17;19.48
81999;BME280;71598;46.516;-122.928;2024-02-21T06:12:51;99622.28;;;19.27;19.38
81999;BME280;71598;46.516;-122.928;2024-02-21T06:15:16;99620.02;;;19.35;19.45
81999;BME280;71598;46.516;-122.928;2024-02-21T06:17:49;99619.19;;;19.39;19.41
81999;BME280;71598;46.516;-122.928;2024-02-21T06:20:09;99616.37;;;19.19;19.45
81999;BME280;71598;46.516;-122.928;2024-02-21T06:22:34;99620.08;;;18.98;19.47
81999;BME280;71598;46.516;-122.928;2024-02-21T06:24:58;99614.45;;;19.10;19.50
81999;BME280;71598;46.516;-122.928;2024-02-21T06:27:24;99611.92;;;19.10;19.55
81999;BME280;71598;46.516;-122.928;2024-02-21T06:29:50;99608.14;;;18.96;19.51
81999;BME280;71598;46.516;-122.928;2024-02-21T06:32:16;99606.11;;;18.71;19.60
81999;BME280;71598;46.516;-122.928;2024-02-21T06:34:40;99606.70;;;19.13;19.53
81999;BME280;71598;46.516;-122.928;2024-02-21T06:37:05;99606.03;;;19.21;19.62
81999;BME280;71598;46.516;-122.928;2024-02-21T06:39:31;99609.98;;;19.01;19.59
81999;BME280;71598;46.516;-122.928;2024-02-21T06:41:57;99609.65;;;18.94;19.63
81999;BME280;71598;46.516;-122.928;2024-02-21T06:44:22;99613.17;;;18.93;19.55
81999;BME280;71598;46.516;-122.928;2024-02-21T06:46:47;99613.74;;;19.02;19.63
81999;BME280;71598;46.516;-122.928;2024-02-21T06:49:14;99617.82;;;18.93;19.61
81999;BME280;71598;46.516;-122.928;2024-02-21T06:51:38;99621.39;;;19.08;19.58
81999;BME280;71598;46.516;-122.928;2024-02-21T06:54:04;99620.46;;;19.18;19.58
81999;BME280;71598;46.516;-122.928;2024-02-21T06:56:29;99625.16;;;18.68;19.61
81999;BME280;71598;46.516;-122.928;2024-02-21T06:58:55;99623.00;;;18.81;19.62
81999;BME280;71598;46.516;-122.928;2024-02-21T07:01:20;99623.23;;;18.88;19.56
81999;BME280;71598;46.516;-122.928;2024-02-21T07:03:46;99622.40;;;19.12;19.64
81999;BME280;71598;46.516;-122.928;2024-02-21T07:06:12;99621.19;;;18.94;19.64
81999;BME280;71598;46.516;-122.928;2024-02-21T07:08:37;99615.42;;;19.00;19.64
81999;BME280;71598;46.516;-122.928;2024-02-21T07:11:02;99613.79;;;18.91;19.65
81999;BME280;71598;46.516;-122.928;2024-02-21T07:13:29;99610.81;;;18.77;19.67
81999;BME280;71598;46.516;-122.928;2024-02-21T07:15:53;99609.90;;;18.41;19.64
81999;BME280;71598;46.516;-122.928;2024-02-21T07:18:18;99609.24;;;18.77;19.66
81999;BME280;71598;46.516;-122.928;2024-02-21T07:20:44;99603.24;;;19.05;19.63
81999;BME280;71598;46.516;-122.928;2024-02-21T07:23:10;99598.35;;;18.93;19.59
81999;BME280;71598;46.516;-122.928;2024-02-21T07:25:35;99598.63;;;18.92;19.71
81999;BME280;71598;46.516;-122.928;2024-02-21T07:28:01;99597.49;;;19.15;19.73
81999;BME280;71598;46.516;-122.928;2024-02-21T07:30:27;99601.02;;;18.89;19.73
81999;BME280;71598;46.516;-122.928;2024-02-21T07:32:53;99599.98;;;19.17;19.68
81999;BME280;71598;46.516;-122.928;2024-02-21T07:35:18;99601.39;;;18.78;19.72
81999;BME280;71598;46.516;-122.928;2024-02-21T07:37:43;99601.07;;;18.70;19.67
81999;BME280;71598;46.516;-122.928;2024-02-21T07:40:13;99601.97;;;18.85;19.66
81999;BME280;71598;46.516;-122.928;2024-02-21T07:42:33;99607.34;;;18.64;19.75
81999;BME280;71598;46.516;-122.928;2024-02-21T07:44:59;99608.65;;;18.93;19.75
81999;BME280;71598;46.516;-122.928;2024-02-21T07:47:25;99607.26;;;18.97;19.72
81999;BME280;71598;46.516;-122.928;2024-02-21T07:49:49;99604.37;;;18.89;19.78
81999;BME280;71598;46.516;-122.928;2024-02-21T07:52:15;99602.52;;;18.88;19.71
81999;BME280;71598;46.516;-122.928;2024-02-21T07:54:40;99603.38;;;18.74;19.74
81999;BME280;71598;46.516;-122.928;2024-02-21T07:57:07;99601.15;;;18.63;19.71
81999;BME280;71598;46.516;-122.928;2024-02-21T07:59:31;99598.06;;;18.73;19.67
81999;BME280;71598;46.516;-122.928;2024-02-21T08:01:57;99595.49;;;18.47;19.72
81999;BME280;71598;46.516;-122.928;2024-02-21T08:04:22;99595.99;;;18.53;19.77
81999;BME280;71598;46.516;-122.928;2024-02-21T08:06:53;99593.07;;;18.49;19.71
81999;BME280;71598;46.516;-122.928;2024-02-21T08:09:13;99593.43;;;19.06;19.68
81999;BME280;71598;46.516;-122.928;2024-02-21T08:11:39;99593.61;;;18.73;19.73
81999;BME280;71598;46.516;-122.928;2024-02-21T08:14:04;99596.33;;;18.84;19.74
81999;BME280;71598;46.516;-122.928;2024-02-21T08:16:30;99593.63;;;18.71;19.73
81999;BME280;71598;46.516;-122.928;2024-02-21T08:18:58;99596.15;;;18.94;19.76
81999;BME280;71598;46.516;-122.928;2024-02-21T08:21:21;99600.53;;;18.89;19.72
81999;BME280;71598;46.516;-122.928;2024-02-21T08:23:47;99600.33;;;18.63;19.78
81999;BME280;71598;46.516;-122.928;2024-02-21T08:26:13;99598.03;;;18.65;19.95
81999;BME280;71598;46.516;-122.928;2024-02-21T08:28:37;99598.13;;;18.99;19.73
81999;BME280;71598;46.516;-122.928;2024-02-21T08:31:03;99599.09;;;18.57;19.86
81999;BME280;71598;46.516;-122.928;2024-02-21T08:33:29;99595.96;;;18.66;19.76
81999;BME280;71598;46.516;-122.928;2024-02-21T08:35:54;99594.81;;;18.54;19.78
81999;BME280;71598;46.516;-122.928;2024-02-21T08:38:19;99594.38;;;18.94;19.79
81999;BME280;71598;46.516;-122.928;2024-02-21T08:40:44;99591.67;;;18.68;19.79
81999;BME280;71598;46.516;-122.928;2024-02-21T08:43:10;99589.83;;;18.53;19.78
81999;BME280;71598;46.516;-122.928;2024-02-21T08:45:35;99588.07;;;19.11;19.78
81999;BME280;71598;46.516;-122.928;2024-02-21T08:48:01;99589.61;;;18.60;19.76
81999;BME280;71598;46.516;-122.928;2024-02-21T08:50:26;99587.89;;;18.91;19.72
81999;BME280;71598;46.516;-122.928;2024-02-21T08:52:52;99587.38;;;18.67;19.49
81999;BME280;71598;46.516;-122.928;2024-02-21T08:55:18;99587.71;;;19.05;19.66
81999;BME280;71598;46.516;-122.928;2024-02-21T08:57:42;99587.07;;;18.77;19.66
81999;BME280;71598;46.516;-122.928;2024-02-21T09:00:08;99584.71;;;18.50;19.74
81999;BME280;71598;46.516;-122.928;2024-02-21T09:02:32;99582.45;;;18.71;19.73
81999;BME280;71598;46.516;-122.928;2024-02-21T09:04:57;99582.67;;;18.88;19.76
81999;BME280;71598;46.516;-122.928;2024-02-21T09:07:23;99579.02;;;18.73;19.78
81999;BME280;71598;46.516;-122.928;2024-02-21T09:09:48;99574.73;;;18.90;19.63
81999;BME280;71598;46.516;-122.928;2024-02-21T09:12:14;99572.30;;;18.81;19.70
81999;BME280;71598;46.516;-122.928;2024-02-21T09:14:39;99569.67;;;18.86;19.74
81999;BME280;71598;46.516;-122.928;2024-02-21T09:17:04;99569.84;;;18.64;19.79
81999;BME280;71598;46.516;-122.928;2024-02-21T09:19:29;99565.11;;;18.64;19.75
81999;BME280;71598;46.516;-122.928;2024-02-21T09:21:55;99561.39;;;18.59;19.74
81999;BME280;71598;46.516;-122.928;2024-02-21T09:24:20;99561.21;;;18.63;19.78
81999;BME280;71598;46.516;-122.928;2024-02-21T09:26:47;99560.25;;;18.61;19.74
81999;BME280;71598;46.516;-122.928;2024-02-21T09:29:11;99562.62;;;18.73;19.78
81999;BME280;71598;46.516;-122.928;2024-02-21T09:31:36;99561.44;;;18.44;19.73
81999;BME280;71598;46.516;-122.928;2024-02-21T09:34:03;99560.67;;;18.64;19.71
81999;BME280;71598;46.516;-122.928;2024-02-21T09:36:27;99560.95;;;18.59;19.68
81999;BME280;71598;46.516;-122.928;2024-02-21T09:38:53;99562.32;;;18.63;19.74
81999;BME280;71598;46.516;-122.928;2024-02-21T09:41:23;99560.84;;;18.65;19.78
81999;BME280;71598;46.516;-122.928;2024-02-21T09:43:44;99559.89;;;18.63;19.82
81999;BME280;71598;46.516;-122.928;2024-02-21T09:46:09;99561.67;;;18.41;19.78
81999;BME280;71598;46.516;-122.928;2024-02-21T09:48:45;99560.25;;;18.70;19.74
81999;BME280;71598;46.516;-122.928;2024-02-21T09:51:00;99559.77;;;18.43;19.83
81999;BME280;71598;46.516;-122.928;2024-02-21T09:53:25;99561.47;;;18.60;19.82
81999;BME280;71598;46.516;-122.928;2024-02-21T09:55:51;99560.97;;;18.84;19.72
81999;BME280;71598;46.516;-122.928;2024-02-21T09:58:17;99562.48;;;18.76;19.76
81999;BME280;71598;46.516;-122.928;2024-02-21T10:00:41;99560.27;;;18.37;19.75
81999;BME280;71598;46.516;-122.928;2024-02-21T10:03:07;99555.86;;;18.50;19.86
81999;BME280;71598;46.516;-122.928;2024-02-21T10:05:33;99555.14;;;18.46;19.73
81999;BME280;71598;46.516;-122.928;2024-02-21T10:07:59;99549.77;;;18.67;19.76
81999;BME280;71598;46.516;-122.928;2024-02-21T10:10:25;99547.47;;;18.80;19.73
81999;BME280;71598;46.516;-122.928;2024-02-21T10:12:50;99548.24;;;18.70;19.79
81999;BME280;71598;46.516;-122.928;2024-02-21T10:15:20;99547.20;;;18.56;19.75
81999;BME280;71598;46.516;-122.928;2024-02-21T10:17:40;99548.85;;;18.57;19.74
81999;BME280;71598;46.516;-122.928;2024-02-21T10:20:10;99551.71;;;18.48;19.74
81999;BME280;71598;46.516;-122.928;2024-02-21T10:22:31;99553.46;;;18.50;19.74
81999;BME280;71598;46.516;-122.928;2024-02-21T10:25:07;99551.49;;;18.99;19.73
81999;BME280;71598;46.516;-122.928;2024-02-21T10:27:25;99551.83;;;18.44;19.75
81999;BME280;71598;46.516;-122.928;2024-02-21T10:29:50;99551.69;;;18.38;19.78
81999;BME280;71598;46.516;-122.928;2024-02-21T10:32:14;99548.86;;;18.44;19.76
81999;BME280;71598;46.516;-122.928;2024-02-21T10:34:40;99552.61;;;18.47;19.75
81999;BME280;71598;46.516;-122.928;2024-02-21T10:37:06;99548.57;;;18.65;19.70
81999;BME280;71598;46.516;-122.928;2024-02-21T10:39:31;99544.74;;;18.65;19.75
81999;BME280;71598;46.516;-122.928;2024-02-21T10:41:59;99542.67;;;18.95;19.70
81999;BME280;71598;46.516;-122.928;2024-02-21T10:44:22;99538.99;;;18.87;19.69
81999;BME280;71598;46.516;-122.928;2024-02-21T10:46:48;99538.02;;;18.50;19.77
81999;BME280;71598;46.516;-122.928;2024-02-21T10:49:20;99543.09;;;18.46;19.77
81999;BME280;71598;46.516;-122.928;2024-02-21T10:51:42;99539.61;;;18.66;19.63
81999;BME280;71598;46.516;-122.928;2024-02-21T10:54:13;99542.79;;;18.59;19.72
81999;BME280;71598;46.516;-122.928;2024-02-21T10:56:30;99543.84;;;18.69;19.70
81999;BME280;71598;46.516;-122.928;2024-02-21T10:58:54;99538.37;;;18.29;19.73
81999;BME280;71598;46.516;-122.928;2024-02-21T11:01:19;99533.83;;;18.49;19.80
81999;BME280;71598;46.516;-122.928;2024-02-21T11:03:48;99534.57;;;18.45;19.70
81999;BME280;71598;46.516;-122.928;2024-02-21T11:06:11;99533.90;;;18.95;19.65
81999;BME280;71598;46.516;-122.928;2024-02-21T11:08:36;99533.83;;;18.49;19.66
81999;BME280;71598;46.516;-122.928;2024-02-21T11:11:01;99536.74;;;18.72;19.57
81999;BME280;71598;46.516;-122.928;2024-02-21T11:13:36;99535.38;;;18.49;19.61
81999;BME280;71598;46.516;-122.928;2024-02-21T11:15:52;99539.23;;;18.62;19.69
81999;BME280;71598;46.516;-122.928;2024-02-21T11:18:24;99536.95;;;18.57;19.61
81999;BME280;71598;46.516;-122.928;2024-02-21T11:20:50;99533.87;;;18.28;19.63
81999;BME280;71598;46.516;-122.928;2024-02-21T11:23:10;99532.71;;;17.91;19.93
81999;BME280;71598;46.516;-122.928;2024-02-21T11:25:43;99537.41;;;18.05;20.10
81999;BME280;71598;46.516;-122.928;2024-02-21T11:28:02;99541.32;;;17.97;20.16
81999;BME280;71598;46.516;-122.928;2024-02-21T11:30:30;99538.51;;;17.92;20.08
81999;BME280;71598;46.516;-122.928;2024-02-21T11:33:01;99539.46;;;18.41;19.97
81999;BME280;71598;46.516;-122.928;2024-02-21T11:35:20;99538.09;;;18.36;19.89
81999;BME280;71598;46.516;-122.928;2024-02-21T11:37:43;99538.18;;;18.29;19.79
81999;BME280;71598;46.516;-122.928;2024-02-21T11:40:09;99539.23;;;18.62;19.82
81999;BME280;71598;46.516;-122.928;2024-02-21T11:42:34;99536.51;;;18.43;19.85
81999;BME280;71598;46.516;-122.928;2024-02-21T11:45:00;99536.38;;;18.48;19.74
81999;BME280;71598;46.516;-122.928;2024-02-21T11:47:27;99536.79;;;18.88;19.57
81999;BME280;71598;46.516;-122.928;2024-02-21T11:49:50;99537.05;;;18.64;19.61
81999;BME280;71598;46.516;-122.928;2024-02-21T11:52:15;99535.05;;;18.65;19.62
81999;BME280;71598;46.516;-122.928;2024-02-21T11:54:40;99538.60;;;18.35;19.61
81999;BME280;71598;46.516;-122.928;2024-02-21T11:57:06;99537.33;;;18.47;19.69
81999;BME280;71598;46.516;-122.928;2024-02-21T11:59:31;99538.09;;;18.65;19.65
81999;BME280;71598;46.516;-122.928;2024-02-21T12:01:57;99539.75;;;18.44;19.69
81999;BME280;71598;46.516;-122.928;2024-02-21T12:04:23;99540.04;;;18.59;19.66
81999;BME280;71598;46.516;-122.928;2024-02-21T12:06:48;99540.61;;;18.58;19.76
81999;BME280;71598;46.516;-122.928;2024-02-21T12:09:15;99540.43;;;18.52;19.66
81999;BME280;71598;46.516;-122.928;2024-02-21T12:11:39;99539.63;;;18.46;19.69
81999;BME280;71598;46.516;-122.928;2024-02-21T12:14:05;99542.62;;;18.73;19.64
81999;BME280;71598;46.516;-122.928;2024-02-21T12:16:31;99543.81;;;18.49;19.65
81999;BME280;71598;46.516;-122.928;2024-02-21T12:18:56;99545.17;;;18.58;19.72
81999;BME280;71598;46.516;-122.928;2024-02-21T12:21:25;99542.91;;;18.61;19.63